Huescar, Spain
Current Conditions -  °F | °C
As of 12:00 AM on Saturday 29 Nov 2014 (Local Time) from LEAM Reporting Station
Broken Clouds Broken Clouds  
Wind Chill: 63°   Ceiling: 8000
Heat Index: 63°   Visibility: 6mi
Dew Point: 55°   Wind: 7mph
Humidity: 77%   Direction: 330°NNW
Pressure: 29.21"   Gusts: NA
Location:  37.81°N, 2.54°W
Report Text: LEAM 282300Z 33006KT 290V010 9999 FEW020 BKN080 17/13 Q0989
Loading
Personal Weather Stations






























Interactive Weather Map New forecast layout! Learn more

10-Day Weather Forecast

Advertisements
Track Severe Weather on mobile